| time (UTC) | temp F | wind direction | speed MPH | gust MPH | rain 1hr in | rain 24hr in | rain mn in | humidity % | barometer mb |
| 20260510094556 | 49 | 0 | 0.0 | 0.0 | 0.00 | 0.24 | 0.00 | 94 | 1011.4 |
| 20260510094052 | 49 | 0 | 0.0 | 0.0 | 0.00 | 0.24 | 0.00 | 94 | 1011.5 |
| 20260510093549 | 49 | 0 | 0.0 | 0.0 | 0.00 | 0.24 | 0.00 | 94 | 1011.4 |
| 20260510093052 | 49 | 0 | 0.0 | 3.0 | 0.00 | 0.24 | 0.00 | 94 | 1011.4 |
| 20260510092549 | 49 | 0 | 0.0 | 3.0 | 0.00 | 0.24 | 0.00 | 94 | 1011.2 |
| 20260510092049 | 49 | 311 | 1.0 | 4.0 | 0.00 | 0.24 | 0.00 | 94 | 1011.4 |
| 20260510091557 | 49 | 309 | 2.0 | 4.0 | 0.00 | 0.24 | 0.00 | 94 | 1011.3 |
| 20260510091052 | 48 | 276 | 0.0 | 0.0 | 0.00 | 0.24 | 0.00 | 94 | 1011.2 |
| 20260510090549 | 48 | 0 | 0.0 | 0.0 | 0.00 | 0.24 | 0.00 | 93 | 1011.1 |
| 20260510090110 | 48 | 0 | 0.0 | 0.0 | 0.00 | 0.24 | 0.00 | 93 | 1011.0 |
| 20260510085556 | 48 | 0 | 0.0 | 0.0 | 0.00 | 0.24 | 0.00 | 94 | 1011.0 |
| 20260510085052 | 48 | 0 | 0.0 | 0.0 | 0.00 | 0.24 | 0.00 | 94 | 1011.1 |
| 20260510084552 | 48 | 0 | 0.0 | 0.0 | 0.00 | 0.24 | 0.00 | 94 | 1011.0 |
| 20260510084052 | 49 | 0 | 0.0 | 0.0 | 0.00 | 0.24 | 0.00 | 93 | 1011.0 |
| 20260510083552 | 49 | 0 | 0.0 | 0.0 | 0.00 | 0.24 | 0.00 | 93 | 1011.1 |
| 20260510083054 | 49 | 0 | 0.0 | 0.0 | 0.00 | 0.24 | 0.00 | 94 | 1011.0 |
| 20260510082552 | 49 | 0 | 0.0 | 0.0 | 0.00 | 0.24 | 0.00 | 94 | 1010.9 |
| 20260510082049 | 49 | 0 | 0.0 | 0.0 | 0.00 | 0.24 | 0.00 | 94 | 1010.9 |
| 20260510081557 | 49 | 0 | 0.0 | 0.0 | 0.00 | 0.24 | 0.00 | 94 | 1010.8 |
| 20260510081053 | 49 | 0 | 0.0 | 0.0 | 0.00 | 0.24 | 0.00 | 94 | 1010.7 |
| 20260510080552 | 49 | 0 | 0.0 | 0.0 | 0.00 | 0.24 | 0.00 | 94 | 1010.8 |
| 20260510075552 | 49 | 0 | 0.0 | 0.0 | 0.00 | 0.24 | 0.00 | 94 | 1010.8 |
| 20260510075049 | 49 | 0 | 0.0 | 0.0 | 0.00 | 0.24 | 0.00 | 94 | 1010.9 |
| 20260510074553 | 49 | 0 | 0.0 | 0.0 | 0.00 | 0.24 | 0.00 | 93 | 1011.0 |
| 20260510074051 | 49 | 0 | 0.0 | 0.0 | 0.00 | 0.24 | 0.00 | 93 | 1011.0 |
| 20260510073552 | 49 | 0 | 0.0 | 0.0 | 0.00 | 0.24 | 0.00 | 93 | 1010.9 |
| 20260510073113 | 49 | 0 | 0.0 | 0.0 | 0.00 | 0.24 | 0.00 | 94 | 1011.0 |
| 20260510072553 | 49 | 0 | 0.0 | 0.0 | 0.00 | 0.24 | 0.00 | 94 | 1011.1 |
| 20260510072053 | 49 | 0 | 0.0 | 0.0 | 0.00 | 0.24 | 0.00 | 93 | 1011.2 |
| 20260510071556 | 49 | 0 | 0.0 | 0.0 | 0.00 | 0.24 | 0.00 | 93 | 1011.3 |
| 20260510071052 | 49 | 0 | 0.0 | 0.0 | 0.00 | 0.24 | 0.00 | 93 | 1011.4 |
| 20260510070552 | 49 | 0 | 0.0 | 0.0 | 0.00 | 0.24 | 0.00 | 93 | 1011.4 |
| 20260510070059 | 49 | 0 | 0.0 | 0.0 | 0.00 | 0.24 | 0.00 | 94 | 1011.5 |
| 20260510065552 | 50 | 0 | 0.0 | 0.0 | 0.00 | 0.24 | 0.00 | 94 | 1011.6 |
| 20260510065051 | 49 | 0 | 0.0 | 3.0 | 0.00 | 0.24 | 0.00 | 94 | 1011.6 |
| 20260510064628 | 49 | 0 | 0.0 | 3.0 | 0.00 | 0.24 | 0.00 | 93 | 1011.6 |
| 20260510064051 | 49 | 281 | 1.0 | 6.0 | 0.00 | 0.24 | 0.00 | 94 | 1011.6 |
| 20260510063553 | 49 | 0 | 0.0 | 13.0 | 0.00 | 0.24 | 0.00 | 93 | 1011.5 |
| 20260510063056 | 48 | 303 | 2.0 | 13.0 | 0.00 | 0.24 | 0.00 | 93 | 1011.8 |
| 20260510062548 | 49 | 287 | 3.0 | 10.0 | 0.00 | 0.24 | 0.00 | 93 | 1011.8 |
| 20260510062051 | 49 | 0 | 0.0 | 0.0 | 0.00 | 0.24 | 0.00 | 93 | 1011.1 |
| 20260510061558 | 49 | 0 | 0.0 | 0.0 | 0.00 | 0.24 | 0.00 | 93 | 1011.1 |
| 20260510061049 | 49 | 0 | 0.0 | 0.0 | 0.00 | 0.24 | 0.00 | 93 | 1011.1 |
| 20260510060552 | 49 | 0 | 0.0 | 0.0 | 0.00 | 0.24 | 0.00 | 93 | 1011.1 |
| 20260510060058 | 49 | 0 | 0.0 | 0.0 | 0.00 | 0.24 | 0.00 | 93 | 1011.3 |
| 20260510055549 | 49 | 0 | 0.0 | 0.0 | 0.00 | 0.24 | 0.00 | 93 | 1011.2 |
| 20260510055051 | 49 | 0 | 0.0 | 0.0 | 0.00 | 0.24 | 0.00 | 93 | 1011.3 |
| 20260510054552 | 49 | 0 | 0.0 | 0.0 | 0.00 | 0.24 | 0.00 | 93 | 1011.4 |
| 20260510054053 | 49 | 0 | 0.0 | 0.0 | 0.00 | 0.24 | 0.00 | 93 | 1011.4 |
| 20260510053549 | 49 | 0 | 0.0 | 0.0 | 0.00 | 0.24 | 0.00 | 93 | 1011.2 |
| 20260510053055 | 50 | 0 | 0.0 | 3.0 | 0.00 | 0.24 | 0.00 | 93 | 1011.4 |
| 20260510052552 | 50 | 0 | 1.0 | 3.0 | 0.00 | 0.24 | 0.00 | 93 | 1011.5 |
| 20260510052049 | 49 | 317 | 0.0 | 3.0 | 0.00 | 0.24 | 0.00 | 93 | 1011.5 |
| 20260510051604 | 48 | 316 | 1.0 | 3.0 | 0.00 | 0.24 | 0.00 | 93 | 1011.5 |
| 20260510051051 | 48 | 0 | 0.0 | 0.0 | 0.00 | 0.24 | 0.00 | 93 | 1011.6 |
| 20260510050551 | 49 | 0 | 0.0 | 0.0 | 0.00 | 0.24 | 0.00 | 93 | 1011.3 |
| 20260510050058 | 49 | 0 | 0.0 | 0.0 | 0.00 | 0.24 | 0.00 | 93 | 1011.1 |
| 20260510045549 | 49 | 0 | 0.0 | 0.0 | 0.00 | 0.24 | 0.00 | 93 | 1011.2 |
| 20260510045052 | 49 | 0 | 0.0 | 0.0 | 0.00 | 0.24 | 0.00 | 93 | 1011.1 |
| 20260510044557 | 49 | 0 | 0.0 | 0.0 | 0.00 | 0.24 | 0.00 | 93 | 1011.1 |
| 20260510044048 | 49 | 0 | 0.0 | 0.0 | 0.00 | 0.24 | 0.00 | 93 | 1011.1 |
| 20260510043551 | 49 | 0 | 0.0 | 0.0 | 0.00 | 0.24 | 0.00 | 93 | 1011.0 |
| 20260510043051 | 49 | 0 | 0.0 | 0.0 | 0.00 | 0.24 | 0.00 | 93 | 1011.0 |
| 20260510042549 | 49 | 0 | 0.0 | 0.0 | 0.00 | 0.24 | 0.00 | 93 | 1011.0 |
| 20260510042048 | 49 | 0 | 0.0 | 0.0 | 0.00 | 0.24 | 0.00 | 93 | 1011.0 |
| 20260510041555 | 49 | 0 | 0.0 | 0.0 | 0.00 | 0.24 | 0.00 | 93 | 1011.0 |
| 20260510041052 | 49 | 0 | 0.0 | 0.0 | 0.00 | 0.24 | 0.00 | 93 | 1011.1 |
| 20260510040548 | 49 | 0 | 0.0 | 0.0 | 0.00 | 0.24 | 0.00 | 93 | 1011.0 |
| 20260510040058 | 49 | 0 | 0.0 | 0.0 | 0.00 | 0.24 | 0.00 | 93 | 1010.9 |
| 20260510035552 | 49 | 0 | 0.0 | 0.0 | 0.00 | 0.24 | 0.24 | 93 | 1011.0 |
| 20260510035053 | 49 | 0 | 0.0 | 0.0 | 0.00 | 0.24 | 0.24 | 93 | 1011.0 |
| 20260510034613 | 49 | 0 | 0.0 | 0.0 | 0.00 | 0.24 | 0.24 | 93 | 1011.1 |
| 20260510034052 | 48 | 0 | 0.0 | 0.0 | 0.00 | 0.24 | 0.24 | 93 | 1011.1 |
| 20260510033553 | 48 | 0 | 0.0 | 0.0 | 0.00 | 0.24 | 0.24 | 93 | 1011.1 |
| 20260510033059 | 48 | 0 | 0.0 | 0.0 | 0.00 | 0.24 | 0.24 | 92 | 1011.0 |
| 20260510032548 | 48 | 0 | 0.0 | 0.0 | 0.00 | 0.24 | 0.24 | 93 | 1010.9 |
| 20260510032048 | 48 | 0 | 0.0 | 0.0 | 0.00 | 0.24 | 0.24 | 93 | 1010.8 |
| 20260510031554 | 48 | 0 | 0.0 | 0.0 | 0.00 | 0.24 | 0.24 | 92 | 1010.8 |
| 20260510031048 | 48 | 0 | 0.0 | 0.0 | 0.00 | 0.24 | 0.24 | 92 | 1010.8 |
| 20260510030551 | 48 | 0 | 0.0 | 0.0 | 0.00 | 0.24 | 0.24 | 92 | 1010.8 |
| 20260510030059 | 48 | 0 | 0.0 | 0.0 | 0.00 | 0.24 | 0.24 | 92 | 1010.7 |
| 20260510025548 | 48 | 0 | 0.0 | 0.0 | 0.00 | 0.24 | 0.24 | 92 | 1010.8 |
| 20260510025051 | 48 | 0 | 0.0 | 0.0 | 0.00 | 0.24 | 0.24 | 92 | 1010.9 |
| 20260510024558 | 48 | 0 | 0.0 | 0.0 | 0.00 | 0.24 | 0.24 | 92 | 1010.7 |
| 20260510024052 | 49 | 0 | 0.0 | 0.0 | 0.00 | 0.24 | 0.24 | 92 | 1010.9 |
| 20260510023552 | 49 | 0 | 0.0 | 0.0 | 0.00 | 0.24 | 0.24 | 92 | 1010.8 |
| 20260510023054 | 49 | 0 | 0.0 | 0.0 | 0.00 | 0.24 | 0.24 | 92 | 1010.7 |
| 20260510022554 | 49 | 0 | 0.0 | 0.0 | 0.00 | 0.24 | 0.24 | 92 | 1010.8 |
| 20260510022051 | 49 | 0 | 0.0 | 0.0 | 0.00 | 0.24 | 0.24 | 92 | 1010.7 |
| 20260510021601 | 49 | 0 | 0.0 | 2.0 | 0.00 | 0.24 | 0.24 | 91 | 1010.7 |
| 20260510021048 | 49 | 0 | 0.0 | 2.0 | 0.00 | 0.24 | 0.24 | 92 | 1010.7 |
| 20260510020554 | 49 | 180 | 0.0 | 1.0 | 0.00 | 0.24 | 0.24 | 91 | 1010.7 |
| 20260510020054 | 49 | 0 | 0.0 | 0.0 | 0.00 | 0.24 | 0.24 | 91 | 1010.6 |
| 20260510015551 | 50 | 0 | 0.0 | 0.0 | 0.00 | 0.24 | 0.24 | 92 | 1010.6 |
| 20260510015051 | 50 | 0 | 0.0 | 0.0 | 0.00 | 0.24 | 0.24 | 91 | 1010.6 |
| 20260510014558 | 50 | 0 | 0.0 | 0.0 | 0.00 | 0.24 | 0.24 | 92 | 1010.7 |
| 20260510014048 | 50 | 0 | 0.0 | 0.0 | 0.00 | 0.24 | 0.24 | 91 | 1010.6 |
| 20260510013554 | 50 | 0 | 0.0 | 0.0 | 0.00 | 0.24 | 0.24 | 91 | 1010.6 |
| 20260510013117 | 50 | 0 | 0.0 | 0.0 | 0.00 | 0.24 | 0.24 | 91 | 1010.7 |
| 20260510012551 | 50 | 0 | 0.0 | 0.0 | 0.00 | 0.24 | 0.24 | 91 | 1010.7 |
| 20260510012052 | 51 | 0 | 0.0 | 0.0 | 0.00 | 0.24 | 0.24 | 91 | 1010.6 |
| 20260510011558 | 51 | 0 | 0.0 | 0.0 | 0.00 | 0.24 | 0.24 | 91 | 1010.6 |
| 20260510011052 | 51 | 0 | 0.0 | 0.0 | 0.00 | 0.24 | 0.24 | 91 | 1010.3 |
| 20260510010549 | 51 | 0 | 0.0 | 0.0 | 0.00 | 0.24 | 0.24 | 91 | 1010.4 |
| 20260510010100 | 51 | 0 | 0.0 | 0.0 | 0.00 | 0.24 | 0.24 | 90 | 1010.3 |
| 20260510005549 | 51 | 0 | 0.0 | 0.0 | 0.00 | 0.24 | 0.24 | 90 | 1010.2 |
| 20260510005051 | 52 | 0 | 0.0 | 0.0 | 0.00 | 0.24 | 0.24 | 91 | 1010.2 |
| 20260510004555 | 51 | 0 | 0.0 | 0.0 | 0.00 | 0.24 | 0.24 | 90 | 1010.1 |
| 20260510004049 | 52 | 0 | 0.0 | 0.0 | 0.00 | 0.24 | 0.24 | 90 | 1010.0 |
| 20260510003549 | 52 | 0 | 0.0 | 0.0 | 0.00 | 0.24 | 0.24 | 90 | 1010.0 |
| 20260510003104 | 52 | 0 | 0.0 | 0.0 | 0.00 | 0.24 | 0.24 | 90 | 1009.9 |
| 20260510002548 | 52 | 0 | 0.0 | 0.0 | 0.00 | 0.24 | 0.24 | 89 | 1009.9 |
| 20260510002048 | 52 | 0 | 0.0 | 0.0 | 0.00 | 0.24 | 0.24 | 89 | 1009.9 |
| 20260510001559 | 52 | 0 | 0.0 | 2.0 | 0.00 | 0.24 | 0.24 | 89 | 1009.8 |
| 20260510001048 | 53 | 0 | 0.0 | 2.0 | 0.00 | 0.24 | 0.24 | 88 | 1009.9 |
| 20260510000552 | 53 | 180 | 0.0 | 3.0 | 0.00 | 0.24 | 0.24 | 87 | 1009.7 |
| 20260510000123 | 53 | 0 | 0.0 | 4.0 | 0.00 | 0.24 | 0.24 | 87 | 1009.7 |
| 20260509235552 | 54 | 179 | 2.0 | 4.0 | 0.00 | 0.24 | 0.24 | 86 | 1009.6 |
| 20260509235048 | 55 | 180 | 0.0 | 3.0 | 0.00 | 0.24 | 0.24 | 86 | 1009.6 |
| 20260509234554 | 55 | 0 | 0.0 | 2.0 | 0.00 | 0.24 | 0.24 | 85 | 1009.5 |
| 20260509234052 | 55 | 0 | 0.0 | 3.0 | 0.00 | 0.24 | 0.24 | 84 | 1009.5 |
| 20260509233548 | 55 | 180 | 0.0 | 3.0 | 0.00 | 0.24 | 0.24 | 84 | 1009.5 |
| 20260509233050 | 56 | 180 | 0.0 | 2.0 | 0.00 | 0.24 | 0.24 | 83 | 1009.5 |
| 20260509232553 | 56 | 0 | 0.0 | 0.0 | 0.00 | 0.24 | 0.24 | 82 | 1009.3 |
| 20260509232049 | 57 | 0 | 0.0 | 3.0 | 0.00 | 0.24 | 0.24 | 81 | 1009.2 |
| 20260509231556 | 57 | 0 | 0.0 | 5.0 | 0.00 | 0.24 | 0.24 | 81 | 1009.4 |
| 20260509231052 | 57 | 180 | 1.0 | 6.0 | 0.00 | 0.24 | 0.24 | 81 | 1009.3 |
| 20260509230548 | 57 | 186 | 3.0 | 6.0 | 0.00 | 0.24 | 0.24 | 80 | 1009.3 |
| 20260509230105 | 57 | 182 | 1.0 | 5.0 | 0.00 | 0.24 | 0.24 | 80 | 1009.3 |
| 20260509225550 | 57 | 248 | 1.0 | 5.0 | 0.00 | 0.24 | 0.24 | 79 | 1009.5 |
| 20260509225052 | 58 | 252 | 3.0 | 6.0 | 0.00 | 0.24 | 0.24 | 78 | 1009.5 |
| 20260509224553 | 58 | 250 | 3.0 | 6.0 | 0.00 | 0.24 | 0.24 | 78 | 1009.5 |
| 20260509224051 | 58 | 232 | 3.0 | 7.0 | 0.00 | 0.24 | 0.24 | 78 | 1009.4 |
| 20260509223553 | 58 | 227 | 3.0 | 7.0 | 0.00 | 0.24 | 0.24 | 79 | 1009.4 |
| 20260509223103 | 58 | 280 | 3.0 | 9.0 | 0.00 | 0.24 | 0.24 | 81 | 1009.5 |
| 20260509222552 | 58 | 219 | 4.0 | 9.0 | 0.00 | 0.24 | 0.24 | 82 | 1009.5 |
| 20260509222052 | 57 | 258 | 4.0 | 8.0 | 0.00 | 0.24 | 0.24 | 83 | 1009.5 |
| 20260509221612 | 57 | 208 | 3.0 | 8.0 | 0.00 | 0.24 | 0.24 | 80 | 1009.6 |
| 20260509221052 | 58 | 171 | 3.0 | 7.0 | 0.00 | 0.24 | 0.24 | 82 | 1009.6 |
| 20260509220552 | 57 | 171 | 2.0 | 6.0 | 0.00 | 0.24 | 0.24 | 85 | 1009.5 |
| 20260509220057 | 56 | 239 | 3.0 | 10.0 | 0.00 | 0.24 | 0.24 | 82 | 1009.5 |
| 20260509215549 | 56 | 231 | 4.0 | 10.0 | 0.00 | 0.24 | 0.24 | 82 | 1009.5 |
| 20260509215055 | 57 | 208 | 2.0 | 5.0 | 0.00 | 0.24 | 0.24 | 83 | 1009.6 |
| 20260509214604 | 57 | 290 | 1.0 | 9.0 | 0.00 | 0.24 | 0.24 | 82 | 1009.6 |
| 20260509214052 | 57 | 222 | 4.0 | 9.0 | 0.00 | 0.24 | 0.24 | 82 | 1009.8 |
| 20260509213552 | 57 | 253 | 2.0 | 6.0 | 0.00 | 0.24 | 0.24 | 83 | 1009.8 |
| 20260509213054 | 56 | 273 | 0.0 | 3.0 | 0.00 | 0.24 | 0.24 | 84 | 1009.8 |
| 20260509212549 | 57 | 202 | 0.0 | 5.0 | 0.00 | 0.24 | 0.24 | 84 | 1009.7 |
| 20260509212048 | 56 | 202 | 2.0 | 5.0 | 0.00 | 0.24 | 0.24 | 83 | 1009.7 |
| 20260509211551 | 57 | 175 | 2.0 | 7.0 | 0.00 | 0.24 | 0.24 | 87 | 1009.7 |
| 20260509211049 | 57 | 242 | 3.0 | 8.0 | 0.00 | 0.24 | 0.24 | 84 | 1009.6 |
| 20260509210549 | 57 | 204 | 4.0 | 8.0 | 0.00 | 0.24 | 0.24 | 83 | 1009.8 |
| 20260509210057 | 57 | 194 | 3.0 | 8.0 | 0.00 | 0.24 | 0.24 | 86 | 1009.8 |
| 20260509205552 | 57 | 189 | 4.0 | 9.0 | 0.00 | 0.24 | 0.24 | 84 | 1009.8 |
| 20260509205048 | 56 | 186 | 4.0 | 13.0 | 0.00 | 0.24 | 0.24 | 85 | 1009.8 |
| 20260509204552 | 56 | 223 | 7.0 | 13.0 | 0.00 | 0.24 | 0.24 | 83 | 1009.9 |
| 20260509204048 | 57 | 181 | 3.0 | 7.0 | 0.00 | 0.24 | 0.24 | 86 | 1009.9 |
| 20260509203552 | 56 | 195 | 2.0 | 8.0 | 0.00 | 0.24 | 0.24 | 87 | 1009.9 |
| 20260509203056 | 56 | 200 | 1.0 | 8.0 | 0.00 | 0.24 | 0.24 | 86 | 1009.9 |
| 20260509202548 | 56 | 264 | 2.0 | 8.0 | 0.00 | 0.24 | 0.24 | 87 | 1010.1 |
| 20260509202052 | 55 | 223 | 2.0 | 8.0 | 0.00 | 0.24 | 0.24 | 87 | 1010.2 |
| 20260509201556 | 55 | 243 | 3.0 | 8.0 | 0.00 | 0.24 | 0.24 | 87 | 1010.2 |
| 20260509201048 | 55 | 250 | 1.0 | 7.0 | 0.00 | 0.24 | 0.24 | 87 | 1010.4 |
| 20260509200552 | 55 | 202 | 2.0 | 6.0 | 0.00 | 0.24 | 0.24 | 88 | 1010.2 |
| 20260509200109 | 55 | 234 | 1.0 | 8.0 | 0.01 | 0.24 | 0.24 | 89 | 1010.3 |
| 20260509195551 | 54 | 178 | 3.0 | 8.0 | 0.01 | 0.24 | 0.24 | 87 | 1010.5 |
| 20260509195048 | 54 | 193 | 3.0 | 6.0 | 0.01 | 0.24 | 0.24 | 87 | 1010.6 |
| 20260509194558 | 54 | 255 | 3.0 | 6.0 | 0.02 | 0.24 | 0.24 | 88 | 1010.4 |
| 20260509194051 | 54 | 231 | 3.0 | 5.0 | 0.02 | 0.24 | 0.24 | 88 | 1010.4 |
| 20260509193551 | 54 | 198 | 1.0 | 4.0 | 0.03 | 0.24 | 0.24 | 90 | 1010.3 |
| 20260509193058 | 54 | 0 | 1.0 | 3.0 | 0.03 | 0.24 | 0.24 | 89 | 1010.6 |
| 20260509192552 | 53 | 0 | 0.0 | 2.0 | 0.03 | 0.24 | 0.24 | 90 | 1010.6 |
| 20260509192055 | 53 | 0 | 0.0 | 2.0 | 0.04 | 0.24 | 0.24 | 90 | 1010.6 |
| 20260509191554 | 53 | 0 | 0.0 | 1.0 | 0.04 | 0.24 | 0.24 | 90 | 1010.7 |
| 20260509191051 | 53 | 0 | 0.0 | 2.0 | 0.04 | 0.24 | 0.24 | 90 | 1010.9 |
| 20260509190552 | 53 | 0 | 0.0 | 4.0 | 0.05 | 0.24 | 0.24 | 90 | 1010.8 |
| 20260509190057 | 53 | 0 | 0.0 | 5.0 | 0.04 | 0.23 | 0.23 | 90 | 1011.0 |
| 20260509185553 | 53 | 182 | 1.0 | 5.0 | 0.05 | 0.23 | 0.23 | 90 | 1011.2 |
| 20260509185052 | 53 | 181 | 1.0 | 5.0 | 0.06 | 0.23 | 0.23 | 90 | 1011.1 |
| 20260509184556 | 53 | 178 | 1.0 | 4.0 | 0.05 | 0.22 | 0.22 | 90 | 1011.3 |
| 20260509184053 | 53 | 186 | 1.0 | 3.0 | 0.05 | 0.21 | 0.21 | 90 | 1011.4 |
| 20260509183553 | 53 | 187 | 1.0 | 3.0 | 0.06 | 0.21 | 0.21 | 90 | 1011.3 |
| 20260509183105 | 53 | 187 | 1.0 | 4.0 | 0.07 | 0.21 | 0.21 | 90 | 1011.3 |
| 20260509182552 | 53 | 195 | 0.0 | 4.0 | 0.08 | 0.21 | 0.21 | 90 | 1011.3 |
| 20260509182052 | 53 | 262 | 2.0 | 4.0 | 0.08 | 0.20 | 0.20 | 89 | 1011.3 |
| 20260509181558 | 53 | 0 | 1.0 | 5.0 | 0.08 | 0.20 | 0.20 | 90 | 1011.2 |
| 20260509181053 | 53 | 0 | 0.0 | 5.0 | 0.09 | 0.20 | 0.20 | 90 | 1011.3 |
| 20260509180555 | 53 | 244 | 2.0 | 4.0 | 0.09 | 0.19 | 0.19 | 89 | 1011.1 |
| 20260509180103 | 53 | 0 | 1.0 | 3.0 | 0.10 | 0.19 | 0.19 | 89 | 1011.3 |
| 20260509175553 | 53 | 217 | 0.0 | 3.0 | 0.10 | 0.18 | 0.18 | 89 | 1011.2 |
| 20260509175055 | 53 | 217 | 0.0 | 4.0 | 0.11 | 0.17 | 0.17 | 90 | 1011.2 |
| 20260509174553 | 53 | 217 | 1.0 | 4.0 | 0.12 | 0.17 | 0.17 | 89 | 1011.3 |
| 20260509174053 | 53 | 0 | 0.0 | 3.0 | 0.12 | 0.16 | 0.16 | 90 | 1011.4 |
| 20260509173553 | 53 | 0 | 0.0 | 4.0 | 0.12 | 0.15 | 0.15 | 89 | 1011.2 |
| 20260509173100 | 52 | 238 | 1.0 | 4.0 | 0.11 | 0.14 | 0.14 | 89 | 1011.4 |
| 20260509172553 | 52 | 242 | 0.0 | 3.0 | 0.11 | 0.13 | 0.13 | 89 | 1011.3 |
| 20260509172053 | 53 | 0 | 0.0 | 5.0 | 0.10 | 0.12 | 0.12 | 89 | 1011.3 |
| 20260509171556 | 52 | 244 | 2.0 | 5.0 | 0.11 | 0.12 | 0.12 | 88 | 1011.5 |
| 20260509171052 | 53 | 271 | 1.0 | 5.0 | 0.10 | 0.11 | 0.11 | 88 | 1011.5 |
| 20260509170554 | 53 | 296 | 1.0 | 9.0 | 0.09 | 0.10 | 0.10 | 88 | 1011.4 |
| 20260509170057 | 53 | 237 | 5.0 | 9.0 | 0.07 | 0.08 | 0.08 | 87 | 1011.7 |
| 20260509165554 | 53 | 227 | 3.0 | 6.0 | 0.07 | 0.08 | 0.08 | 88 | 1011.6 |
| 20260509165053 | 53 | 195 | 2.0 | 6.0 | 0.05 | 0.06 | 0.06 | 87 | 1011.5 |
| 20260509164555 | 53 | 200 | 2.0 | 7.0 | 0.04 | 0.05 | 0.05 | 87 | 1011.5 |
| 20260509164052 | 53 | 210 | 3.0 | 9.0 | 0.03 | 0.04 | 0.04 | 85 | 1011.7 |
| 20260509163552 | 54 | 261 | 5.0 | 9.0 | 0.02 | 0.03 | 0.03 | 85 | 1011.8 |
| 20260509163101 | 54 | 183 | 4.0 | 8.0 | 0.02 | 0.03 | 0.03 | 85 | 1011.7 |
| 20260509162552 | 54 | 179 | 4.0 | 8.0 | 0.01 | 0.02 | 0.02 | 83 | 1011.7 |
| 20260509162053 | 54 | 220 | 4.0 | 7.0 | 0.01 | 0.02 | 0.02 | 83 | 1011.7 |
| 20260509161600 | 55 | 198 | 3.0 | 8.0 | 0.00 | 0.01 | 0.01 | 83 | 1011.6 |
| 20260509161048 | 55 | 199 | 3.0 | 11.0 | 0.00 | 0.01 | 0.01 | 84 | 1011.7 |
| 20260509160550 | 55 | 231 | 6.0 | 11.0 | 0.00 | 0.01 | 0.01 | 83 | 1011.8 |
| 20260509160055 | 55 | 200 | 5.0 | 12.0 | 0.00 | 0.01 | 0.01 | 80 | 1011.7 |
| 20260509155551 | 55 | 201 | 4.0 | 12.0 | 0.00 | 0.01 | 0.01 | 81 | 1011.8 |
| 20260509155048 | 55 | 183 | 5.0 | 11.0 | 0.00 | 0.01 | 0.01 | 80 | 1011.6 |
| 20260509154554 | 55 | 187 | 2.0 | 11.0 | 0.00 | 0.01 | 0.01 | 80 | 1011.8 |
| 20260509154053 | 55 | 190 | 6.0 | 11.0 | 0.00 | 0.01 | 0.01 | 80 | 1011.8 |
| 20260509153550 | 55 | 198 | 5.0 | 11.0 | 0.00 | 0.01 | 0.01 | 82 | 1011.8 |
| 20260509153058 | 55 | 184 | 4.0 | 6.0 | 0.00 | 0.01 | 0.01 | 83 | 1011.9 |
| 20260509152549 | 55 | 159 | 3.0 | 6.0 | 0.00 | 0.01 | 0.01 | 81 | 1012.0 |
| 20260509152048 | 54 | 174 | 2.0 | 5.0 | 0.00 | 0.01 | 0.01 | 84 | 1012.1 |
| 20260509151557 | 54 | 202 | 1.0 | 5.0 | 0.00 | 0.01 | 0.01 | 85 | 1012.2 |
| 20260509151048 | 53 | 0 | 0.0 | 0.0 | 0.00 | 0.01 | 0.01 | 86 | 1011.8 |
| 20260509150551 | 53 | 0 | 0.0 | 0.0 | 0.00 | 0.01 | 0.01 | 87 | 1012.0 |
| 20260509150057 | 53 | 0 | 0.0 | 0.0 | 0.00 | 0.01 | 0.01 | 86 | 1011.7 |
| 20260509145549 | 53 | 0 | 0.0 | 0.0 | 0.00 | 0.01 | 0.01 | 86 | 1011.5 |
| 20260509145049 | 53 | 0 | 0.0 | 0.0 | 0.00 | 0.01 | 0.01 | 86 | 1011.4 |
| 20260509144559 | 53 | 0 | 0.0 | 0.0 | 0.00 | 0.01 | 0.01 | 86 | 1011.5 |
| 20260509144048 | 53 | 0 | 0.0 | 0.0 | 0.00 | 0.01 | 0.01 | 86 | 1011.4 |
| 20260509143549 | 53 | 0 | 0.0 | 0.0 | 0.00 | 0.01 | 0.01 | 87 | 1011.4 |
| 20260509143059 | 53 | 0 | 0.0 | 0.0 | 0.00 | 0.01 | 0.01 | 86 | 1011.4 |
| 20260509142548 | 52 | 0 | 0.0 | 0.0 | 0.00 | 0.01 | 0.01 | 86 | 1011.4 |
| 20260509142051 | 53 | 0 | 0.0 | 0.0 | 0.00 | 0.01 | 0.01 | 87 | 1011.5 |
| 20260509141600 | 53 | 0 | 0.0 | 0.0 | 0.01 | 0.01 | 0.01 | 87 | 1011.6 |
| 20260509141048 | 53 | 0 | 0.0 | 0.0 | 0.01 | 0.01 | 0.01 | 86 | 1011.7 |
| 20260509140548 | 53 | 0 | 0.0 | 0.0 | 0.01 | 0.01 | 0.01 | 84 | 1011.7 |
| 20260509140105 | 53 | 0 | 0.0 | 0.0 | 0.01 | 0.01 | 0.01 | 85 | 1011.7 |
| 20260509135549 | 53 | 0 | 0.0 | 0.0 | 0.01 | 0.01 | 0.01 | 86 | 1011.7 |
| 20260509135050 | 52 | 0 | 0.0 | 0.0 | 0.01 | 0.01 | 0.01 | 85 | 1011.7 |
| 20260509134557 | 52 | 0 | 0.0 | 0.0 | 0.01 | 0.01 | 0.01 | 86 | 1011.9 |
| 20260509134049 | 52 | 0 | 0.0 | 0.0 | 0.01 | 0.01 | 0.01 | 86 | 1011.7 |
| 20260509133549 | 52 | 0 | 0.0 | 2.0 | 0.01 | 0.01 | 0.01 | 86 | 1011.6 |
| 20260509133056 | 52 | 0 | 0.0 | 2.0 | 0.01 | 0.01 | 0.01 | 85 | 1011.5 |
| 20260509132553 | 52 | 0 | 0.0 | 1.0 | 0.01 | 0.01 | 0.01 | 85 | 1011.4 |
| 20260509132049 | 52 | 0 | 0.0 | 2.0 | 0.01 | 0.01 | 0.01 | 86 | 1011.4 |
| 20260509131557 | 52 | 0 | 0.0 | 3.0 | 0.00 | 0.00 | 0.00 | 85 | 1011.2 |
| 20260509131052 | 52 | 0 | 0.0 | 3.0 | 0.00 | 0.00 | 0.00 | 85 | 1011.2 |
| 20260509130548 | 52 | 0 | 0.0 | 4.0 | 0.00 | 0.00 | 0.00 | 85 | 1011.2 |
| 20260509130055 | 51 | 0 | 0.0 | 4.0 | 0.00 | 0.00 | 0.00 | 85 | 1011.2 |
| 20260509125549 | 51 | 84 | 1.0 | 3.0 | 0.00 | 0.00 | 0.00 | 85 | 1011.3 |
| 20260509125048 | 52 | 84 | 1.0 | 4.0 | 0.00 | 0.00 | 0.00 | 84 | 1011.4 |
| 20260509124558 | 51 | 0 | 2.0 | 4.0 | 0.00 | 0.00 | 0.00 | 84 | 1011.4 |
| 20260509124048 | 51 | 83 | 2.0 | 4.0 | 0.00 | 0.00 | 0.00 | 83 | 1011.4 |
| 20260509123548 | 51 | 83 | 0.0 | 4.0 | 0.00 | 0.00 | 0.00 | 82 | 1011.5 |
| 20260509123118 | 51 | 98 | 1.0 | 4.0 | 0.00 | 0.00 | 0.00 | 83 | 1011.4 |
| 20260509122550 | 51 | 0 | 0.0 | 0.0 | 0.00 | 0.00 | 0.00 | 82 | 1011.5 |
| 20260509122049 | 51 | 0 | 0.0 | 0.0 | 0.00 | 0.00 | 0.00 | 83 | 1011.7 |
| 20260509121601 | 51 | 0 | 0.0 | 0.0 | 0.00 | 0.00 | 0.00 | 83 | 1011.6 |
| 20260509121052 | 51 | 0 | 0.0 | 0.0 | 0.00 | 0.00 | 0.00 | 83 | 1011.6 |
| 20260509120549 | 51 | 0 | 0.0 | 0.0 | 0.00 | 0.00 | 0.00 | 83 | 1011.7 |
| 20260509120110 | 50 | 0 | 0.0 | 1.0 | 0.00 | 0.00 | 0.00 | 84 | 1011.8 |
| 20260509115548 | 50 | 0 | 0.0 | 1.0 | 0.00 | 0.00 | 0.00 | 84 | 1011.6 |
| 20260509115048 | 50 | 0 | 0.0 | 5.0 | 0.00 | 0.00 | 0.00 | 84 | 1011.7 |
| 20260509114554 | 50 | 0 | 1.0 | 5.0 | 0.00 | 0.00 | 0.00 | 86 | 1011.7 |
| 20260509114049 | 50 | 88 | 0.0 | 0.0 | 0.00 | 0.00 | 0.00 | 85 | 1011.5 |
| 20260509113551 | 50 | 0 | 0.0 | 0.0 | 0.00 | 0.00 | 0.00 | 85 | 1011.2 |
| 20260509113102 | 50 | 0 | 0.0 | 0.0 | 0.00 | 0.00 | 0.00 | 85 | 1011.3 |
| 20260509112548 | 50 | 0 | 0.0 | 0.0 | 0.00 | 0.00 | 0.00 | 85 | 1011.4 |
| 20260509112048 | 50 | 0 | 0.0 | 0.0 | 0.00 | 0.00 | 0.00 | 85 | 1011.3 |
| 20260509111555 | 50 | 0 | 0.0 | 2.0 | 0.00 | 0.00 | 0.00 | 86 | 1011.3 |
| 20260509111049 | 50 | 0 | 0.0 | 2.0 | 0.00 | 0.00 | 0.00 | 86 | 1011.3 |
| 20260509110551 | 50 | 76 | 0.0 | 2.0 | 0.00 | 0.00 | 0.00 | 86 | 1011.4 |
| 20260509110053 | 49 | 0 | 0.0 | 2.0 | 0.00 | 0.00 | 0.00 | 86 | 1011.5 |
| 20260509105551 | 49 | 0 | 0.0 | 2.0 | 0.00 | 0.00 | 0.00 | 87 | 1011.4 |
| 20260509105049 | 49 | 76 | 0.0 | 2.0 | 0.00 | 0.00 | 0.00 | 87 | 1011.3 |
| 20260509104553 | 49 | 76 | 0.0 | 2.0 | 0.00 | 0.00 | 0.00 | 87 | 1011.3 |
| 20260509104048 | 49 | 0 | 0.0 | 2.0 | 0.00 | 0.00 | 0.00 | 87 | 1011.3 |
| 20260509103550 | 49 | 0 | 0.0 | 3.0 | 0.00 | 0.00 | 0.00 | 87 | 1011.2 |
| 20260509103100 | 49 | 0 | 0.0 | 9.0 | 0.00 | 0.00 | 0.00 | 87 | 1011.2 |
| 20260509102549 | 48 | 77 | 0.0 | 9.0 | 0.00 | 0.00 | 0.00 | 87 | 1011.0 |
| 20260509102049 | 48 | 77 | 2.0 | 9.0 | 0.00 | 0.00 | 0.00 | 87 | 1010.9 |
| 20260509101559 | 48 | 0 | 0.0 | 4.0 | 0.00 | 0.00 | 0.00 | 88 | 1011.0 |
| 20260509101050 | 48 | 61 | 1.0 | 3.0 | 0.00 | 0.00 | 0.00 | 88 | 1010.9 |
| 20260509100552 | 48 | 61 | 1.0 | 3.0 | 0.00 | 0.00 | 0.00 | 88 | 1011.1 |
| 20260509100059 | 48 | 0 | 1.0 | 3.0 | 0.00 | 0.00 | 0.00 | 88 | 1011.3 |
| 20260509095553 | 48 | 55 | 1.0 | 3.0 | 0.00 | 0.00 | 0.00 | 88 | 1011.1 |
| 20260509095054 | 48 | 34 | 0.0 | 3.0 | 0.00 | 0.00 | 0.00 | 88 | 1011.2 |